createdAt,value
2017-10-17T00:00:13.180Z,9.10
2017-10-17T00:01:12.317Z,9.10
2017-10-17T00:02:12.247Z,9.30
2017-10-17T00:03:12.629Z,9.10
2017-10-17T00:04:13.533Z,9.00
2017-10-17T00:05:13.099Z,9.50
2017-10-17T00:06:12.789Z,8.60
2017-10-17T00:07:13.493Z,8.80
2017-10-17T00:08:12.937Z,9.80
2017-10-17T00:09:12.618Z,9.60
2017-10-17T00:10:12.746Z,8.50
2017-10-17T00:11:13.525Z,9.30
2017-10-17T00:12:12.444Z,9.20
2017-10-17T00:13:12.309Z,9.40
2017-10-17T00:14:12.750Z,9.80
2017-10-17T00:15:12.833Z,9.10
2017-10-17T00:16:13.643Z,9.20
2017-10-17T00:17:12.598Z,9.90
2017-10-17T00:18:12.632Z,8.60
2017-10-17T00:19:12.687Z,8.80
2017-10-17T00:20:13.087Z,9.20
2017-10-17T00:21:13.417Z,9.20
2017-10-17T00:22:12.678Z,8.90
2017-10-17T00:23:12.555Z,8.20
2017-10-17T00:24:12.984Z,9.30
2017-10-17T00:25:13.327Z,9.70
2017-10-17T00:26:13.872Z,9.00
2017-10-17T00:27:13.220Z,8.20
2017-10-17T00:28:12.683Z,9.30
2017-10-17T00:29:13.110Z,8.60
2017-10-17T00:30:12.490Z,9.30
2017-10-17T00:31:13.031Z,9.20
2017-10-17T00:32:13.537Z,9.10
2017-10-17T00:33:12.866Z,9.40
2017-10-17T00:34:12.937Z,9.10
2017-10-17T00:35:12.996Z,9.30
2017-10-17T00:36:13.185Z,9.00
2017-10-17T00:37:12.411Z,8.80
2017-10-17T00:38:13.648Z,8.80
2017-10-17T00:39:12.980Z,8.80
2017-10-17T00:40:13.150Z,8.80
2017-10-17T00:41:13.368Z,8.60
2017-10-17T00:42:12.761Z,9.30
2017-10-17T00:43:13.562Z,9.20
2017-10-17T00:44:13.111Z,8.90
2017-10-17T00:45:13.167Z,9.00
2017-10-17T00:46:12.565Z,8.40
2017-10-17T00:47:12.687Z,9.60
2017-10-17T00:48:13.712Z,8.90
2017-10-17T00:49:13.252Z,8.90
2017-10-17T00:50:13.013Z,9.50
2017-10-17T00:51:13.355Z,9.20
2017-10-17T00:52:13.255Z,9.10
2017-10-17T00:53:12.552Z,8.80
2017-10-17T00:54:12.763Z,9.10
2017-10-17T00:55:12.681Z,9.60
2017-10-17T00:56:12.918Z,8.90
2017-10-17T00:57:12.971Z,8.90
2017-10-17T00:58:12.917Z,9.20
2017-10-17T00:59:13.387Z,8.80
2017-10-17T01:00:12.722Z,9.30
2017-10-17T01:01:12.740Z,9.10
2017-10-17T01:02:13.067Z,8.20
2017-10-17T01:03:12.902Z,8.70
2017-10-17T01:04:13.279Z,9.50
2017-10-17T01:05:12.614Z,9.60
2017-10-17T01:06:13.025Z,9.40
2017-10-17T01:07:13.201Z,9.70
2017-10-17T01:08:12.821Z,9.60
2017-10-17T01:09:13.594Z,9.40
2017-10-17T01:10:12.907Z,9.20
2017-10-17T01:11:12.897Z,8.50
2017-10-17T01:12:12.914Z,9.70
2017-10-17T01:13:13.532Z,9.40
2017-10-17T01:14:13.111Z,9.00
2017-10-17T01:15:13.891Z,9.40
2017-10-17T01:16:13.215Z,9.20
2017-10-17T01:17:12.972Z,9.40
2017-10-17T01:18:13.072Z,9.10
2017-10-17T01:19:12.554Z,8.90
2017-10-17T01:20:13.143Z,9.30
2017-10-17T01:21:12.975Z,9.60
2017-10-17T01:22:13.345Z,9.60
2017-10-17T01:23:12.929Z,9.50
2017-10-17T01:24:13.265Z,9.60
2017-10-17T01:25:12.825Z,9.10
2017-10-17T01:26:13.555Z,9.30
2017-10-17T01:27:13.050Z,9.20
2017-10-17T01:28:13.486Z,9.10
2017-10-17T01:29:13.038Z,9.00
2017-10-17T01:30:13.500Z,9.80
2017-10-17T01:31:13.078Z,8.90
2017-10-17T01:32:13.870Z,9.80
2017-10-17T01:33:12.957Z,10.10
2017-10-17T01:34:13.131Z,9.30
2017-10-17T01:35:12.441Z,8.80
2017-10-17T01:36:12.669Z,9.70
2017-10-17T01:37:13.566Z,9.50
2017-10-17T01:38:12.851Z,9.90
2017-10-17T01:39:12.941Z,9.50
2017-10-17T01:40:13.127Z,10.00
2017-10-17T01:41:12.526Z,9.80
2017-10-17T01:42:12.888Z,10.00
2017-10-17T01:43:12.744Z,9.50
2017-10-17T01:44:12.992Z,9.10
2017-10-17T01:45:12.497Z,9.10
2017-10-17T01:46:13.062Z,10.10
2017-10-17T01:47:12.361Z,9.50
2017-10-17T01:48:13.120Z,10.20
2017-10-17T01:49:12.787Z,9.10
2017-10-17T01:50:13.028Z,9.70
2017-10-17T01:51:12.354Z,10.20
2017-10-17T01:52:12.671Z,10.20
2017-10-17T01:53:13.424Z,9.80
2017-10-17T01:54:12.903Z,10.30
2017-10-17T01:55:12.844Z,10.00
2017-10-17T01:56:12.524Z,9.60
2017-10-17T01:57:12.807Z,11.00
2017-10-17T01:58:12.913Z,9.60
2017-10-17T01:59:13.253Z,10.80
2017-10-17T02:00:12.449Z,9.90
2017-10-17T02:01:12.678Z,10.60
2017-10-17T02:02:12.839Z,10.20
2017-10-17T02:03:13.044Z,10.30
2017-10-17T02:04:12.360Z,10.90
2017-10-17T02:05:12.662Z,10.50
2017-10-17T02:06:12.470Z,10.40
2017-10-17T02:07:12.580Z,11.20
2017-10-17T02:08:12.696Z,10.60
2017-10-17T02:09:13.177Z,10.30
2017-10-17T02:10:13.846Z,10.40
2017-10-17T02:11:12.611Z,10.90
2017-10-17T02:12:12.658Z,10.50
2017-10-17T02:13:12.808Z,10.90
2017-10-17T02:14:12.681Z,10.70
2017-10-17T02:15:12.611Z,10.50
2017-10-17T02:16:12.957Z,10.20
2017-10-17T02:17:13.538Z,11.00
2017-10-17T02:18:13.049Z,11.10
2017-10-17T02:19:12.830Z,11.10
2017-10-17T02:20:12.695Z,10.40
2017-10-17T02:21:13.268Z,10.70
2017-10-17T02:22:12.550Z,10.70
2017-10-17T02:23:12.743Z,11.00
2017-10-17T02:24:12.791Z,10.60
2017-10-17T02:25:13.298Z,11.00
2017-10-17T02:26:12.727Z,11.70
2017-10-17T02:27:12.969Z,10.90
2017-10-17T02:28:12.855Z,10.70
2017-10-17T02:29:12.433Z,10.50
2017-10-17T02:30:12.456Z,11.00
2017-10-17T02:31:12.393Z,11.30
2017-10-17T02:32:12.698Z,10.80
2017-10-17T02:33:13.807Z,10.90
2017-10-17T02:34:12.843Z,11.20
2017-10-17T02:35:12.323Z,11.00
2017-10-17T02:36:12.835Z,10.90
2017-10-17T02:37:13.316Z,12.40
2017-10-17T02:38:12.488Z,11.50
2017-10-17T02:39:12.822Z,11.80
2017-10-17T02:40:12.867Z,11.70
2017-10-17T02:41:13.223Z,10.90
2017-10-17T02:42:12.287Z,12.10
2017-10-17T02:43:12.406Z,11.40
2017-10-17T02:44:12.327Z,11.00
2017-10-17T02:45:13.143Z,10.90
2017-10-17T02:46:12.366Z,12.00
2017-10-17T02:47:12.760Z,11.70
2017-10-17T02:48:12.649Z,10.90
2017-10-17T02:49:12.797Z,12.10
2017-10-17T02:50:13.396Z,11.30
2017-10-17T02:51:12.779Z,11.80
2017-10-17T02:52:13.065Z,11.60
2017-10-17T02:53:12.525Z,11.60
2017-10-17T02:54:12.978Z,11.40
2017-10-17T02:55:13.867Z,11.90
2017-10-17T02:56:12.840Z,11.60
2017-10-17T02:57:13.453Z,12.40
2017-10-17T02:58:12.919Z,11.80
2017-10-17T02:59:13.057Z,12.80
2017-10-17T03:00:13.532Z,12.30
2017-10-17T03:01:13.004Z,11.90
2017-10-17T03:02:13.114Z,12.20
2017-10-17T03:03:13.351Z,12.70
2017-10-17T03:04:12.818Z,12.70
2017-10-17T03:05:12.589Z,12.80
2017-10-17T03:06:14.027Z,12.40
2017-10-17T03:07:13.450Z,12.40
2017-10-17T03:08:12.334Z,12.60
2017-10-17T03:09:13.090Z,12.20
2017-10-17T03:10:13.398Z,12.00
2017-10-17T03:11:12.599Z,13.00
2017-10-17T03:12:12.827Z,13.30
2017-10-17T03:13:13.032Z,13.50
2017-10-17T03:14:13.100Z,13.20
2017-10-17T03:15:12.492Z,12.50
2017-10-17T03:16:12.276Z,13.30
2017-10-17T03:17:12.459Z,12.80
2017-10-17T03:18:13.033Z,13.30
2017-10-17T03:19:12.529Z,13.70
2017-10-17T03:20:12.768Z,13.20
2017-10-17T03:21:13.905Z,13.90
2017-10-17T03:22:13.355Z,13.50
2017-10-17T03:23:13.257Z,13.50
2017-10-17T03:24:12.797Z,13.30
2017-10-17T03:25:13.003Z,14.30
2017-10-17T03:26:13.388Z,13.70
2017-10-17T03:27:12.758Z,13.50
2017-10-17T03:28:13.440Z,14.30
2017-10-17T03:29:12.779Z,14.00
2017-10-17T03:30:12.793Z,14.30
2017-10-17T03:31:12.797Z,13.90
2017-10-17T03:32:12.951Z,14.30
2017-10-17T03:33:13.808Z,14.60
2017-10-17T03:34:12.613Z,14.80
2017-10-17T03:35:12.418Z,15.40
2017-10-17T03:36:12.601Z,15.00
2017-10-17T03:37:12.640Z,15.00
2017-10-17T03:38:12.847Z,15.20
2017-10-17T03:39:13.203Z,14.30
2017-10-17T03:40:12.595Z,15.20
2017-10-17T03:41:12.657Z,14.70
2017-10-17T03:42:13.175Z,14.60
2017-10-17T03:43:12.447Z,15.30
2017-10-17T03:44:12.729Z,14.70
2017-10-17T03:45:13.671Z,14.70
2017-10-17T03:46:13.012Z,16.00
2017-10-17T03:47:13.259Z,16.10
2017-10-17T03:48:12.460Z,15.80
2017-10-17T03:49:12.829Z,16.20
2017-10-17T03:50:13.949Z,15.80
2017-10-17T03:51:12.394Z,15.30
2017-10-17T03:52:12.716Z,15.50
2017-10-17T03:53:12.755Z,16.50
2017-10-17T03:54:12.870Z,16.90
2017-10-17T03:55:12.868Z,16.40
2017-10-17T03:56:13.522Z,15.60
2017-10-17T03:57:12.675Z,15.60
2017-10-17T03:58:13.060Z,17.30
2017-10-17T03:59:13.303Z,16.40
2017-10-17T04:00:12.978Z,16.80
2017-10-17T04:01:13.033Z,16.50
2017-10-17T04:02:13.926Z,17.50
2017-10-17T04:03:12.628Z,16.80
2017-10-17T04:04:12.401Z,15.70
2017-10-17T04:05:12.408Z,16.60
2017-10-17T04:06:13.133Z,17.00
2017-10-17T04:07:13.597Z,17.10
2017-10-17T04:08:12.382Z,16.90
2017-10-17T04:09:12.504Z,17.20
2017-10-17T04:10:12.543Z,15.60
2017-10-17T04:11:12.793Z,16.90
2017-10-17T04:12:12.651Z,16.40
2017-10-17T04:13:13.115Z,16.00
2017-10-17T04:14:12.150Z,18.10
2017-10-17T04:15:12.637Z,16.90
2017-10-17T04:16:12.868Z,17.00
2017-10-17T04:17:12.520Z,16.70
2017-10-17T04:18:12.341Z,18.50
2017-10-17T04:19:13.199Z,17.00
2017-10-17T04:20:12.067Z,18.60
2017-10-17T04:21:12.152Z,17.80
2017-10-17T04:22:13.027Z,18.50
2017-10-17T04:23:13.475Z,17.70
2017-10-17T04:24:12.337Z,17.90
2017-10-17T04:25:12.574Z,18.50
2017-10-17T04:26:13.167Z,18.70
2017-10-17T04:27:13.152Z,18.60
2017-10-17T04:28:12.054Z,19.10
2017-10-17T04:29:13.447Z,18.50
2017-10-17T04:30:12.721Z,19.20
2017-10-17T04:31:13.385Z,19.00
2017-10-17T04:32:12.614Z,19.10
2017-10-17T04:33:13.130Z,18.30
2017-10-17T04:34:13.032Z,18.40
2017-10-17T04:35:13.330Z,18.70
2017-10-17T04:36:12.677Z,19.50
2017-10-17T04:37:13.011Z,19.60
2017-10-17T04:38:13.434Z,19.00
2017-10-17T04:39:12.545Z,19.60
2017-10-17T04:40:12.710Z,19.60
2017-10-17T04:41:13.110Z,19.60
2017-10-17T04:42:12.065Z,20.80
2017-10-17T04:43:12.754Z,20.20
2017-10-17T04:44:12.528Z,19.60
2017-10-17T04:45:12.849Z,21.70
2017-10-17T04:46:13.534Z,20.60
2017-10-17T04:47:12.540Z,19.80
2017-10-17T04:48:13.273Z,20.00
2017-10-17T04:49:12.652Z,20.00
2017-10-17T04:50:12.928Z,20.60
2017-10-17T04:51:13.879Z,20.10
2017-10-17T04:52:12.453Z,21.30
2017-10-17T04:53:12.269Z,21.90
2017-10-17T04:54:12.778Z,20.90
2017-10-17T04:55:13.326Z,21.60
2017-10-17T04:56:12.943Z,21.10
2017-10-17T04:57:13.999Z,21.70
2017-10-17T04:58:12.941Z,22.80
2017-10-17T04:59:12.266Z,21.20
2017-10-17T05:00:12.706Z,22.30
2017-10-17T05:01:13.219Z,22.10
2017-10-17T05:02:12.256Z,21.80
2017-10-17T05:03:13.149Z,21.20
2017-10-17T05:04:13.106Z,22.80
2017-10-17T05:05:13.816Z,23.00
2017-10-17T05:06:12.761Z,22.70
2017-10-17T05:07:12.897Z,22.60
2017-10-17T05:08:13.143Z,23.10
2017-10-17T05:09:13.429Z,22.50
2017-10-17T05:10:13.273Z,22.00
2017-10-17T05:11:12.320Z,21.40
2017-10-17T05:12:12.819Z,22.70
2017-10-17T05:13:13.639Z,22.60
2017-10-17T05:14:12.713Z,22.50
2017-10-17T05:15:12.968Z,22.40
2017-10-17T05:16:13.517Z,23.00
2017-10-17T05:17:13.277Z,23.50
2017-10-17T05:18:13.438Z,23.30
2017-10-17T05:19:12.825Z,23.50
2017-10-17T05:20:13.328Z,22.70
2017-10-17T05:21:12.209Z,22.40
2017-10-17T05:22:12.795Z,23.10
2017-10-17T05:23:12.870Z,23.80
2017-10-17T05:24:13.705Z,22.80
2017-10-17T05:25:13.533Z,21.90
2017-10-17T05:26:12.997Z,21.90
2017-10-17T05:27:13.461Z,23.10
2017-10-17T05:28:13.209Z,21.90
2017-10-17T05:29:13.751Z,22.50
2017-10-17T05:30:12.369Z,22.20
2017-10-17T05:31:12.485Z,22.30
2017-10-17T05:32:12.381Z,21.40
2017-10-17T05:33:12.525Z,22.40
2017-10-17T05:34:12.769Z,20.80
2017-10-17T05:35:13.231Z,21.70
2017-10-17T05:36:12.855Z,20.70
2017-10-17T05:37:19.885Z,22.00
2017-10-17T05:38:12.496Z,20.60
2017-10-17T05:39:13.144Z,19.60
2017-10-17T05:40:14.556Z,20.70
2017-10-17T05:41:13.079Z,20.60
2017-10-17T05:42:13.096Z,18.40
2017-10-17T05:43:12.184Z,17.90
2017-10-17T05:44:12.322Z,20.20
2017-10-17T05:45:12.774Z,18.50
2017-10-17T05:46:13.882Z,19.70
2017-10-17T05:47:12.925Z,17.00
2017-10-17T05:48:13.243Z,17.80
2017-10-17T05:49:12.639Z,17.50
2017-10-17T05:50:12.710Z,17.30
2017-10-17T05:51:13.364Z,16.90
2017-10-17T05:52:12.859Z,16.80
2017-10-17T05:53:13.398Z,16.60
2017-10-17T05:54:13.059Z,17.80
2017-10-17T05:55:13.524Z,16.50
2017-10-17T05:56:13.099Z,15.60
2017-10-17T05:57:13.843Z,16.00
2017-10-17T05:58:13.722Z,16.40
2017-10-17T05:59:12.971Z,15.70
2017-10-17T06:00:12.815Z,16.30
2017-10-17T06:01:13.051Z,15.10
2017-10-17T06:02:13.442Z,15.60
2017-10-17T06:03:13.159Z,14.70
2017-10-17T06:04:12.424Z,14.70
2017-10-17T06:05:12.603Z,14.70
2017-10-17T06:06:12.665Z,15.30
2017-10-17T06:07:12.960Z,14.80
2017-10-17T06:08:13.447Z,14.90
2017-10-17T06:09:12.817Z,14.60
2017-10-17T06:10:13.525Z,15.10
2017-10-17T06:11:12.886Z,14.90
2017-10-17T06:12:13.370Z,16.30
2017-10-17T06:13:12.619Z,15.30
2017-10-17T06:14:13.704Z,16.10
2017-10-17T06:15:13.396Z,16.00
2017-10-17T06:16:12.531Z,16.90
2017-10-17T06:17:13.122Z,16.60
2017-10-17T06:18:13.679Z,17.10
2017-10-17T06:19:13.113Z,17.10
2017-10-17T06:20:13.699Z,16.70
2017-10-17T06:21:13.514Z,17.30
2017-10-17T06:22:13.025Z,17.70
2017-10-17T06:23:13.109Z,18.70
2017-10-17T06:24:12.806Z,17.50
2017-10-17T06:25:13.607Z,17.70
2017-10-17T06:26:12.856Z,17.20
2017-10-17T06:27:13.053Z,18.00
2017-10-17T06:28:13.001Z,18.00
2017-10-17T06:29:13.415Z,19.00
2017-10-17T06:30:12.524Z,18.00
2017-10-17T06:31:14.645Z,18.10
2017-10-17T06:32:12.646Z,18.00
2017-10-17T06:33:12.625Z,16.50
2017-10-17T06:34:12.824Z,17.60
2017-10-17T06:35:12.821Z,16.90
2017-10-17T06:36:13.445Z,17.00
2017-10-17T06:37:12.444Z,16.50
2017-10-17T06:38:12.897Z,17.50
2017-10-17T06:39:12.882Z,17.70
2017-10-17T06:40:13.394Z,17.90
2017-10-17T06:41:12.886Z,17.80
2017-10-17T06:42:13.342Z,17.10
2017-10-17T06:43:12.378Z,17.60
2017-10-17T06:44:12.825Z,18.00
2017-10-17T06:45:15.021Z,18.10
2017-10-17T06:46:13.415Z,18.60
2017-10-17T06:47:12.583Z,17.60
2017-10-17T06:48:13.640Z,18.10
2017-10-17T06:49:12.797Z,18.10
2017-10-17T06:50:12.982Z,17.90
2017-10-17T06:51:13.508Z,18.10
2017-10-17T06:52:12.961Z,18.10
2017-10-17T06:53:13.224Z,18.70
2017-10-17T06:54:12.745Z,18.30
2017-10-17T06:55:13.246Z,19.10
2017-10-17T06:56:12.564Z,18.40
2017-10-17T06:57:12.789Z,18.10
2017-10-17T06:58:12.805Z,19.00
2017-10-17T06:59:14.282Z,18.00
2017-10-17T07:00:12.724Z,17.40
2017-10-17T07:01:13.649Z,17.30
2017-10-17T07:02:13.491Z,17.60
2017-10-17T07:03:12.915Z,18.20
2017-10-17T07:04:14.072Z,17.90
2017-10-17T07:05:13.650Z,18.90
2017-10-17T07:06:13.480Z,18.60
2017-10-17T07:07:12.761Z,17.60
2017-10-17T07:08:13.087Z,18.60
2017-10-17T07:09:12.763Z,18.00
2017-10-17T07:10:13.507Z,18.00
2017-10-17T07:11:13.280Z,18.70
2017-10-17T07:12:12.467Z,18.80
2017-10-17T07:13:12.468Z,19.80
2017-10-17T07:14:12.507Z,18.60
2017-10-17T07:15:12.787Z,19.40
2017-10-17T07:16:13.184Z,20.00
2017-10-17T07:17:12.935Z,20.20
2017-10-17T07:18:12.831Z,19.80
2017-10-17T07:19:13.330Z,20.70
2017-10-17T07:20:12.700Z,19.80
2017-10-17T07:21:13.219Z,18.60
2017-10-17T07:22:13.275Z,18.30
2017-10-17T07:23:13.349Z,17.90
2017-10-17T07:24:14.169Z,19.50
2017-10-17T07:25:13.517Z,18.60
2017-10-17T07:26:14.167Z,18.50
2017-10-17T07:27:13.108Z,18.80
2017-10-17T07:28:14.118Z,18.10
2017-10-17T07:29:12.912Z,18.40
2017-10-17T07:30:13.607Z,17.30
2017-10-17T07:31:13.505Z,17.70
2017-10-17T07:32:12.818Z,18.00
2017-10-17T07:33:13.318Z,16.80
2017-10-17T07:34:12.669Z,16.00
2017-10-17T07:35:13.474Z,17.10
2017-10-17T07:36:13.065Z,15.50
2017-10-17T07:37:13.742Z,15.50
2017-10-17T07:38:13.376Z,15.90
2017-10-17T07:39:13.018Z,15.10
2017-10-17T07:40:14.991Z,15.40
2017-10-17T07:41:13.661Z,14.60
2017-10-17T07:42:13.328Z,14.70
2017-10-17T07:43:13.028Z,14.80
2017-10-17T07:44:14.972Z,14.40
2017-10-17T07:45:12.969Z,14.20
2017-10-17T07:46:12.617Z,13.40
2017-10-17T07:47:13.370Z,13.20
2017-10-17T07:48:12.568Z,13.20
2017-10-17T07:49:13.359Z,13.30
2017-10-17T07:50:13.257Z,13.10
2017-10-17T07:51:12.441Z,12.70
2017-10-17T07:52:12.645Z,12.60
2017-10-17T07:53:13.205Z,13.10
2017-10-17T07:54:14.137Z,12.40
2017-10-17T07:55:14.017Z,12.20
2017-10-17T07:56:22.783Z,11.70
2017-10-17T07:57:12.933Z,11.70
2017-10-17T07:58:14.127Z,11.50
2017-10-17T07:59:13.629Z,12.20
2017-10-17T08:00:13.916Z,11.80
2017-10-17T08:01:13.732Z,11.20
2017-10-17T08:02:12.863Z,10.40
2017-10-17T08:03:13.763Z,10.30
2017-10-17T08:04:13.229Z,11.60
2017-10-17T08:05:13.391Z,10.70
2017-10-17T08:06:12.431Z,10.10
2017-10-17T08:07:12.393Z,10.10
2017-10-17T08:08:12.903Z,10.40
2017-10-17T08:09:13.421Z,9.40
2017-10-17T08:10:12.334Z,10.00
2017-10-17T08:11:13.400Z,10.80
2017-10-17T08:12:12.774Z,9.70
2017-10-17T08:13:13.139Z,10.10
2017-10-17T08:14:13.595Z,9.70
2017-10-17T08:15:13.150Z,10.60
2017-10-17T08:16:12.975Z,9.70
2017-10-17T08:17:13.437Z,10.40
2017-10-17T08:18:12.799Z,9.90
2017-10-17T08:19:13.685Z,10.40
2017-10-17T08:20:13.326Z,10.60
2017-10-17T08:21:12.899Z,9.70
2017-10-17T08:22:13.332Z,9.10
2017-10-17T08:23:13.009Z,9.40
2017-10-17T08:24:13.923Z,9.70
2017-10-17T08:25:12.691Z,10.50
2017-10-17T08:26:13.091Z,9.70
2017-10-17T08:27:13.112Z,8.70
2017-10-17T08:28:13.682Z,10.00
2017-10-17T08:29:14.099Z,8.80
2017-10-17T08:30:13.389Z,10.10
2017-10-17T08:31:12.267Z,9.30
2017-10-17T08:32:12.815Z,8.70
2017-10-17T08:33:13.040Z,9.00
2017-10-17T08:34:12.720Z,8.60
2017-10-17T08:35:12.938Z,9.30
2017-10-17T08:36:13.429Z,9.10
2017-10-17T08:37:13.288Z,10.10
2017-10-17T08:38:13.213Z,9.80
2017-10-17T08:39:13.364Z,8.40
2017-10-17T08:40:13.486Z,9.00
2017-10-17T08:41:12.709Z,8.60
2017-10-17T08:42:13.237Z,9.50
2017-10-17T08:43:13.009Z,9.00
2017-10-17T08:44:12.618Z,8.60
2017-10-17T08:45:13.074Z,8.10
2017-10-17T08:46:13.449Z,7.90
2017-10-17T08:47:13.239Z,8.00
2017-10-17T08:48:13.022Z,8.20
2017-10-17T08:49:14.280Z,8.40
2017-10-17T08:50:12.562Z,8.30
2017-10-17T08:51:12.610Z,8.60
2017-10-17T08:52:13.146Z,8.50
2017-10-17T08:53:14.426Z,8.30
2017-10-17T08:54:13.655Z,8.30
2017-10-17T08:55:12.752Z,7.40
2017-10-17T08:56:12.960Z,7.80
2017-10-17T08:57:13.428Z,7.70
2017-10-17T08:58:12.873Z,8.60
2017-10-17T08:59:13.007Z,7.20
2017-10-17T09:00:13.811Z,7.20
2017-10-17T09:01:13.121Z,7.00
2017-10-17T09:02:13.202Z,7.40
2017-10-17T09:03:12.434Z,7.40
2017-10-17T09:04:12.864Z,8.40
2017-10-17T09:05:13.556Z,7.40
2017-10-17T09:06:12.871Z,7.70
2017-10-17T09:07:13.411Z,6.90
2017-10-17T09:08:13.068Z,7.80
2017-10-17T09:09:12.861Z,6.60
2017-10-17T09:10:13.383Z,7.80
2017-10-17T09:11:13.038Z,7.90
2017-10-17T09:12:13.388Z,7.20
2017-10-17T09:13:12.844Z,6.50
2017-10-17T09:14:13.248Z,7.40
2017-10-17T09:15:12.754Z,7.60
2017-10-17T09:16:13.407Z,7.30
2017-10-17T09:17:12.851Z,6.30
2017-10-17T09:18:13.539Z,6.10
2017-10-17T09:19:13.268Z,6.80
2017-10-17T09:20:13.144Z,7.10
2017-10-17T09:21:12.480Z,6.70
2017-10-17T09:22:13.656Z,7.40
2017-10-17T09:23:13.896Z,6.60
2017-10-17T09:24:13.455Z,7.00
2017-10-17T09:25:12.979Z,6.50
2017-10-17T09:26:13.347Z,6.90
2017-10-17T09:27:15.342Z,6.80
2017-10-17T09:28:13.755Z,7.00
2017-10-17T09:32:47.095Z,6.90
2017-10-17T09:33:47.344Z,6.70
2017-10-17T09:34:46.739Z,6.50
2017-10-17T09:35:46.205Z,6.50
2017-10-17T09:36:46.748Z,6.60
2017-10-17T09:37:46.943Z,6.90
2017-10-17T09:38:47.753Z,7.70
2017-10-17T09:39:47.659Z,6.80
2017-10-17T09:40:46.862Z,7.10
2017-10-17T09:41:46.126Z,6.80
2017-10-17T09:42:46.876Z,6.90
2017-10-17T09:43:45.947Z,6.20
2017-10-17T09:44:46.523Z,6.40
2017-10-17T09:45:47.061Z,7.30
2017-10-17T09:46:46.908Z,6.40
2017-10-17T09:47:47.001Z,6.60
2017-10-17T09:48:46.539Z,6.30
2017-10-17T09:49:46.565Z,6.60
2017-10-17T09:50:47.128Z,6.50
2017-10-17T09:51:47.136Z,6.70
2017-10-17T09:52:47.534Z,6.40
2017-10-17T09:53:47.156Z,6.60
2017-10-17T09:54:46.904Z,7.30
2017-10-17T09:55:46.483Z,6.90
2017-10-17T09:56:47.098Z,6.90
2017-10-17T09:57:46.227Z,6.80
2017-10-17T09:58:46.940Z,6.60
2017-10-17T09:59:46.265Z,6.60
2017-10-17T10:00:47.117Z,6.80
2017-10-17T10:01:46.801Z,6.60
2017-10-17T10:02:46.808Z,7.30
2017-10-17T10:03:46.802Z,7.40
2017-10-17T10:04:46.433Z,6.90
2017-10-17T10:05:46.817Z,6.40
2017-10-17T10:06:46.732Z,7.20
2017-10-17T10:07:46.482Z,6.80
2017-10-17T10:08:47.920Z,7.00
2017-10-17T10:09:47.690Z,7.20
2017-10-17T10:10:47.282Z,7.50
2017-10-17T10:11:46.456Z,6.70
2017-10-17T10:12:47.104Z,6.70
2017-10-17T10:13:46.564Z,6.00
2017-10-17T10:14:47.681Z,6.50
2017-10-17T10:15:47.247Z,6.80
2017-10-17T10:16:46.524Z,7.40
2017-10-17T10:17:47.279Z,7.00
2017-10-17T10:18:46.599Z,7.40
2017-10-17T10:19:46.024Z,6.90
2017-10-17T10:20:48.044Z,6.70
2017-10-17T10:21:46.841Z,5.90
2017-10-17T10:22:46.929Z,6.30
2017-10-17T10:23:46.462Z,6.70
2017-10-17T10:24:46.064Z,7.00
2017-10-17T10:25:46.883Z,6.10
2017-10-17T10:26:45.994Z,5.70
2017-10-17T10:27:46.014Z,6.10
2017-10-17T10:28:46.321Z,5.90
2017-10-17T10:29:46.911Z,6.40
2017-10-17T10:30:47.689Z,6.30
2017-10-17T10:31:47.442Z,6.00
2017-10-17T10:32:46.264Z,6.70
2017-10-17T10:33:46.796Z,5.70
2017-10-17T10:34:45.860Z,6.00
2017-10-17T10:35:47.578Z,5.80
2017-10-17T10:36:46.846Z,6.10
2017-10-17T10:37:46.400Z,5.70
2017-10-17T10:38:46.800Z,6.60
2017-10-17T10:39:46.611Z,6.10
2017-10-17T10:40:46.417Z,6.50
2017-10-17T10:41:46.265Z,6.10
2017-10-17T10:42:46.580Z,6.40
2017-10-17T10:43:46.366Z,5.80
2017-10-17T10:44:47.153Z,5.50
2017-10-17T10:45:47.025Z,6.40
2017-10-17T10:46:47.593Z,5.70
2017-10-17T10:47:47.216Z,6.50
2017-10-17T10:48:46.657Z,5.90
2017-10-17T10:49:48.375Z,5.80
2017-10-17T10:50:46.687Z,5.00
2017-10-17T10:51:46.636Z,6.10
2017-10-17T10:52:46.759Z,6.10
2017-10-17T10:53:46.600Z,5.40
2017-10-17T10:54:46.766Z,5.50
2017-10-17T10:55:46.310Z,5.70
2017-10-17T10:56:47.189Z,5.80
2017-10-17T10:57:47.079Z,6.10
2017-10-17T10:58:46.648Z,5.80
2017-10-17T10:59:47.226Z,5.60
2017-10-17T11:00:47.095Z,5.90
2017-10-17T11:01:46.859Z,5.70
2017-10-17T11:02:46.978Z,5.80
2017-10-17T11:03:46.582Z,5.70
2017-10-17T11:04:46.883Z,6.10
2017-10-17T11:05:46.465Z,5.60
2017-10-17T11:06:46.581Z,6.40
2017-10-17T11:07:46.288Z,5.90
2017-10-17T11:08:46.800Z,5.70
2017-10-17T11:09:46.906Z,5.40
2017-10-17T11:10:46.366Z,5.80
2017-10-17T11:11:46.619Z,5.10
2017-10-17T11:12:47.423Z,5.80
2017-10-17T11:13:46.835Z,5.80
2017-10-17T11:14:46.621Z,5.70
2017-10-17T11:15:46.031Z,6.00
2017-10-17T11:16:46.697Z,5.80
2017-10-17T11:17:46.084Z,5.80
2017-10-17T11:18:46.794Z,5.60
2017-10-17T11:19:46.526Z,5.20
2017-10-17T11:20:46.719Z,5.70
2017-10-17T11:21:46.026Z,5.90
2017-10-17T11:22:46.324Z,5.60
2017-10-17T11:23:47.223Z,5.70
2017-10-17T11:24:47.333Z,6.00
2017-10-17T11:25:46.506Z,5.70
2017-10-17T11:26:46.170Z,5.60
2017-10-17T11:27:46.929Z,6.30
2017-10-17T11:28:46.566Z,5.50
2017-10-17T11:29:46.777Z,5.90
2017-10-17T11:30:47.175Z,5.40
2017-10-17T11:31:46.685Z,5.60
2017-10-17T11:32:47.294Z,5.70
2017-10-17T11:33:46.928Z,6.20
2017-10-17T11:34:46.211Z,5.50
2017-10-17T11:35:46.672Z,5.50
2017-10-17T11:36:46.232Z,6.80
2017-10-17T11:37:46.549Z,5.40
2017-10-17T11:38:46.163Z,5.30
2017-10-17T11:39:47.078Z,5.30
2017-10-17T11:40:46.590Z,5.70
2017-10-17T11:41:45.982Z,5.90
2017-10-17T11:42:46.431Z,6.10
2017-10-17T11:43:46.765Z,5.80
2017-10-17T11:44:46.833Z,6.10
2017-10-17T11:45:46.223Z,5.50
2017-10-17T11:46:46.821Z,6.10
2017-10-17T11:47:46.883Z,5.40
2017-10-17T11:48:46.723Z,5.70
2017-10-17T11:49:46.958Z,5.50
2017-10-17T11:50:46.524Z,5.80
2017-10-17T11:51:46.153Z,5.10
2017-10-17T11:52:46.720Z,5.90
2017-10-17T11:53:46.667Z,5.70
2017-10-17T11:54:46.875Z,5.80
2017-10-17T11:55:46.624Z,6.50
2017-10-17T11:56:47.164Z,5.70
2017-10-17T11:57:46.487Z,6.20
2017-10-17T11:58:45.969Z,5.40
2017-10-17T11:59:46.761Z,5.90
2017-10-17T12:00:46.330Z,5.80
2017-10-17T12:01:48.074Z,7.40
2017-10-17T12:02:46.849Z,6.30
2017-10-17T12:03:46.853Z,6.10
2017-10-17T12:04:47.343Z,7.00
2017-10-17T12:05:46.801Z,7.10
2017-10-17T12:06:45.790Z,6.80
2017-10-17T12:07:45.689Z,5.90
2017-10-17T12:08:45.856Z,5.70
2017-10-17T12:09:46.771Z,5.90
2017-10-17T12:10:46.670Z,6.10
2017-10-17T12:11:45.887Z,5.60
2017-10-17T12:12:46.175Z,6.80
2017-10-17T12:13:46.374Z,4.90
2017-10-17T12:14:47.336Z,5.80
2017-10-17T12:15:46.556Z,5.70
2017-10-17T12:16:46.093Z,5.60
2017-10-17T12:17:46.793Z,6.20
2017-10-17T12:18:46.104Z,6.10
2017-10-17T12:19:46.369Z,5.90
2017-10-17T12:20:46.943Z,5.90
2017-10-17T12:21:46.326Z,5.80
2017-10-17T12:22:46.776Z,6.30
2017-10-17T12:23:46.427Z,6.20
2017-10-17T12:24:47.029Z,5.60
2017-10-17T12:25:46.860Z,5.60
2017-10-17T12:26:46.653Z,5.80
2017-10-17T12:27:46.194Z,5.60
2017-10-17T12:28:47.016Z,5.80
2017-10-17T12:29:47.018Z,5.50
2017-10-17T12:30:46.622Z,5.70
2017-10-17T12:31:46.461Z,5.50
2017-10-17T12:32:47.612Z,6.60
2017-10-17T12:33:46.422Z,7.10
2017-10-17T12:34:46.265Z,6.30
2017-10-17T12:35:46.909Z,5.50
2017-10-17T12:36:46.491Z,6.50
2017-10-17T12:37:47.308Z,6.10
2017-10-17T12:38:47.354Z,5.50
2017-10-17T12:39:45.937Z,5.50
2017-10-17T12:40:46.583Z,5.60
2017-10-17T12:41:45.758Z,5.70
2017-10-17T12:42:46.255Z,6.40
2017-10-17T12:43:48.516Z,5.40
2017-10-17T12:44:46.049Z,6.60
2017-10-17T12:45:46.945Z,6.10
2017-10-17T12:46:46.159Z,5.60
2017-10-17T12:47:46.899Z,5.90
2017-10-17T12:48:47.245Z,5.20
2017-10-17T12:49:47.301Z,6.10
2017-10-17T12:50:46.540Z,5.70
2017-10-17T12:51:46.914Z,6.80
2017-10-17T12:52:47.021Z,6.00
2017-10-17T12:53:47.879Z,6.10
2017-10-17T12:54:46.156Z,6.80
2017-10-17T12:55:46.928Z,6.00
2017-10-17T12:56:46.468Z,5.70
2017-10-17T12:57:46.158Z,6.20
2017-10-17T12:58:46.697Z,5.90
2017-10-17T12:59:45.922Z,5.60
2017-10-17T13:00:46.675Z,6.50
2017-10-17T13:01:45.889Z,7.00
2017-10-17T13:02:46.683Z,5.80
2017-10-17T13:03:46.400Z,6.10
2017-10-17T13:04:45.972Z,5.50
2017-10-17T13:05:46.862Z,5.90
2017-10-17T13:06:47.230Z,6.90
2017-10-17T13:07:46.779Z,5.60
2017-10-17T13:08:46.826Z,6.50